Time,TemperatureF,DewpointF,PressureIn,WindDirection,WindDirectionDegrees,WindSpeedMPH,WindSpeedGustMPH,Humidity,HourlyPrecipIn,Conditions,Clouds,dailyrainin,SoftwareType,DateUTC
2013-03-13 00:06:00,27.0,15.3,29.85,North,0,0.0,0.0,61,0.00,,,-99.99,VWS V12.07,2013-03-13 05:06:00,
2013-03-13 00:11:00,26.8,15.1,29.85,North,0,0.0,0.0,61,0.00,,,-99.99,VWS V12.07,2013-03-13 05:11:00,
2013-03-13 00:16:00,26.8,15.1,29.85,North,0,0.0,0.0,61,0.00,,,-99.99,VWS V12.07,2013-03-13 05:16:00,
2013-03-13 00:21:00,26.6,15.0,29.88,North,0,0.0,0.0,61,0.00,,,-99.99,VWS V12.07,2013-03-13 05:21:00,
2013-03-13 00:26:00,26.4,14.8,29.88,North,0,0.0,0.0,61,0.00,,,-99.99,VWS V12.07,2013-03-13 05:26:00,
2013-03-13 00:31:00,26.2,15.0,29.88,North,0,0.0,0.0,62,0.00,,,-99.99,VWS V12.07,2013-03-13 05:31:00,
2013-03-13 00:36:00,26.1,15.2,29.88,North,0,0.0,0.0,63,0.00,,,-99.99,VWS V12.07,2013-03-13 05:36:00,
2013-03-13 00:41:00,25.9,15.0,29.88,North,0,0.0,0.0,63,0.00,,,-99.99,VWS V12.07,2013-03-13 05:41:00,
2013-03-13 00:46:00,25.7,14.9,29.88,North,0,0.0,0.0,63,0.00,,,-99.99,VWS V12.07,2013-03-13 05:46:00,
2013-03-13 00:51:00,25.7,15.2,29.88,North,0,0.0,0.0,64,0.00,,,-99.99,VWS V12.07,2013-03-13 05:51:00,
2013-03-13 01:01:00,25.3,14.9,29.88,North,0,0.0,0.0,64,0.00,,,-99.99,VWS V12.07,2013-03-13 06:01:00,
2013-03-13 01:06:00,25.3,14.9,29.88,North,0,0.0,0.0,64,0.00,,,-99.99,VWS V12.07,2013-03-13 06:06:00,
2013-03-13 01:11:00,25.2,14.7,29.88,North,0,0.0,0.0,64,0.00,,,-99.99,VWS V12.07,2013-03-13 06:11:00,
2013-03-13 01:16:00,25.2,14.7,29.88,North,0,0.0,0.0,64,0.00,,,-99.99,VWS V12.07,2013-03-13 06:16:00,
2013-03-13 01:21:00,24.8,14.4,29.88,North,0,0.0,0.0,64,0.00,,,-99.99,VWS V12.07,2013-03-13 06:21:00,
2013-03-13 01:26:00,24.8,14.0,29.88,North,0,0.0,0.0,63,0.00,,,-99.99,VWS V12.07,2013-03-13 06:26:00,
2013-03-13 01:31:00,24.6,13.1,29.88,North,0,0.0,0.0,61,0.00,,,-99.99,VWS V12.07,2013-03-13 06:31:00,
2013-03-13 01:36:00,24.6,12.4,29.88,North,0,0.0,0.0,59,0.00,,,-99.99,VWS V12.07,2013-03-13 06:36:00,
2013-03-13 01:41:00,24.6,11.6,29.88,North,0,0.0,0.0,57,0.00,,,-99.99,VWS V12.07,2013-03-13 06:41:00,
2013-03-13 01:46:00,24.4,10.2,29.88,North,0,0.0,0.0,54,0.00,,,-99.99,VWS V12.07,2013-03-13 06:46:00,
2013-03-13 01:51:00,24.4,9.8,29.88,North,0,0.0,0.0,53,0.00,,,-99.99,VWS V12.07,2013-03-13 06:51:00,
2013-03-13 01:56:00,24.4,9.4,29.88,North,0,0.0,0.0,52,0.00,,,-99.99,VWS V12.07,2013-03-13 06:56:00,
2013-03-13 02:06:00,24.4,8.9,29.91,North,0,0.0,0.0,51,0.00,,,-99.99,VWS V12.07,2013-03-13 07:06:00,
2013-03-13 02:11:00,24.4,8.5,29.91,North,0,0.0,0.0,50,0.00,,,-99.99,VWS V12.07,2013-03-13 07:11:00,
2013-03-13 02:26:00,23.9,7.1,29.91,North,0,0.0,0.0,48,0.00,,,-99.99,VWS V12.07,2013-03-13 07:26:00,
2013-03-13 02:31:00,23.9,7.1,29.91,North,0,0.0,0.0,48,0.00,,,-99.99,VWS V12.07,2013-03-13 07:31:00,
2013-03-13 02:41:00,23.5,6.8,29.91,North,0,0.0,0.0,48,0.00,,,-99.99,VWS V12.07,2013-03-13 07:41:00,
2013-03-13 02:51:00,23.2,5.9,29.91,North,0,0.0,0.0,47,0.00,,,-99.99,VWS V12.07,2013-03-13 07:51:00,
2013-03-13 02:56:00,23.2,5.9,29.91,North,0,0.0,0.0,47,0.00,,,-99.99,VWS V12.07,2013-03-13 07:56:00,
2013-03-13 03:01:00,23.2,6.4,29.91,North,0,0.0,0.0,48,0.00,,,-99.99,VWS V12.07,2013-03-13 08:01:00,
2013-03-13 03:11:00,23.0,6.2,29.91,North,0,0.0,0.0,48,0.00,,,-99.99,VWS V12.07,2013-03-13 08:11:00,
2013-03-13 03:16:00,22.8,6.1,29.91,North,0,0.0,0.0,48,0.00,,,-99.99,VWS V12.07,2013-03-13 08:16:00,
2013-03-13 03:21:00,22.8,6.1,29.91,North,0,0.0,0.0,48,0.00,,,-99.99,VWS V12.07,2013-03-13 08:21:00,
2013-03-13 03:26:00,22.6,5.9,29.91,North,0,0.0,0.0,48,0.00,,,-99.99,VWS V12.07,2013-03-13 08:26:00,
2013-03-13 03:31:00,22.5,5.8,29.91,North,0,0.0,0.0,48,0.00,,,-99.99,VWS V12.07,2013-03-13 08:31:00,
2013-03-13 03:36:00,22.5,6.2,29.91,North,0,0.0,0.0,49,0.00,,,-99.99,VWS V12.07,2013-03-13 08:36:00,
2013-03-13 03:41:00,22.5,6.2,29.91,North,0,0.0,0.0,49,0.00,,,-99.99,VWS V12.07,2013-03-13 08:41:00,
2013-03-13 03:46:00,22.3,6.0,29.91,North,0,0.0,0.0,49,0.00,,,-99.99,VWS V12.07,2013-03-13 08:46:00,
2013-03-13 03:51:00,22.5,6.6,29.91,North,0,0.0,0.0,50,0.00,,,-99.99,VWS V12.07,2013-03-13 08:51:00,
2013-03-13 03:56:00,22.5,7.1,29.91,North,0,0.0,0.0,51,0.00,,,-99.99,VWS V12.07,2013-03-13 08:56:00,
2013-03-13 04:01:00,22.3,6.9,29.91,North,0,0.0,0.0,51,0.00,,,-99.99,VWS V12.07,2013-03-13 09:01:00,
2013-03-13 04:06:00,22.3,6.9,29.94,North,0,0.0,0.0,51,0.00,,,-99.99,VWS V12.07,2013-03-13 09:06:00,
2013-03-13 04:11:00,22.3,6.9,29.94,North,0,0.0,0.0,51,0.00,,,-99.99,VWS V12.07,2013-03-13 09:11:00,
2013-03-13 04:16:00,22.1,6.8,29.94,North,0,0.0,0.0,51,0.00,,,-99.99,VWS V12.07,2013-03-13 09:16:00,
2013-03-13 04:26:00,22.1,7.2,29.94,North,0,0.0,0.0,52,0.00,,,-99.99,VWS V12.07,2013-03-13 09:26:00,
2013-03-13 04:36:00,21.9,7.4,29.94,North,0,0.0,0.0,53,0.00,,,-99.99,VWS V12.07,2013-03-13 09:36:00,
2013-03-13 04:41:00,21.9,7.4,29.94,North,0,0.0,0.0,53,0.00,,,-99.99,VWS V12.07,2013-03-13 09:41:00,
2013-03-13 04:46:00,21.7,7.3,29.94,North,0,0.0,0.0,53,0.00,,,-99.99,VWS V12.07,2013-03-13 09:46:00,
2013-03-13 04:51:00,21.7,7.3,29.94,North,0,0.0,0.0,53,0.00,,,-99.99,VWS V12.07,2013-03-13 09:51:00,
2013-03-13 04:56:00,21.7,7.7,29.94,North,0,0.0,0.0,54,0.00,,,-99.99,VWS V12.07,2013-03-13 09:56:00,
2013-03-13 05:06:00,21.6,7.5,29.97,North,0,0.0,0.0,54,0.00,,,-99.99,VWS V12.07,2013-03-13 10:06:00,
2013-03-13 05:16:00,21.4,7.3,29.97,North,0,0.0,0.0,54,0.00,,,-99.99,VWS V12.07,2013-03-13 10:16:00,
2013-03-13 05:21:00,21.4,7.3,29.97,North,0,0.0,0.0,54,0.00,,,-99.99,VWS V12.07,2013-03-13 10:21:00,
2013-03-13 05:26:00,21.4,7.3,29.97,North,0,0.0,0.0,54,0.00,,,-99.99,VWS V12.07,2013-03-13 10:26:00,
2013-03-13 05:31:00,21.2,7.6,29.97,North,0,0.0,0.0,55,0.00,,,-99.99,VWS V12.07,2013-03-13 10:31:00,
2013-03-13 05:36:00,21.2,7.6,29.97,North,0,0.0,0.0,55,0.00,,,-99.99,VWS V12.07,2013-03-13 10:36:00,
2013-03-13 05:46:00,21.2,7.6,29.97,North,0,0.0,0.0,55,0.00,,,-99.99,VWS V12.07,2013-03-13 10:46:00,
2013-03-13 05:56:00,21.2,7.6,29.97,North,0,0.0,0.0,55,0.00,,,-99.99,VWS V12.07,2013-03-13 10:56:00,
2013-03-13 06:06:00,21.0,7.4,29.97,North,0,0.0,0.0,55,0.00,,,-99.99,VWS V12.07,2013-03-13 11:06:00,
2013-03-13 06:11:00,21.0,7.4,29.97,North,0,0.0,0.0,55,0.00,,,-99.99,VWS V12.07,2013-03-13 11:11:00,
2013-03-13 06:16:00,20.8,7.2,29.97,North,0,0.0,0.0,55,0.00,,,-99.99,VWS V12.07,2013-03-13 11:16:00,
2013-03-13 06:21:00,20.7,7.1,30.00,North,0,0.0,0.0,55,0.00,,,-99.99,VWS V12.07,2013-03-13 11:21:00,
2013-03-13 06:26:00,20.7,7.1,30.00,North,0,0.0,0.0,55,0.00,,,-99.99,VWS V12.07,2013-03-13 11:26:00,
2013-03-13 06:31:00,20.7,7.5,30.00,North,0,0.0,0.0,56,0.00,,,-99.99,VWS V12.07,2013-03-13 11:31:00,
2013-03-13 06:36:00,20.7,7.5,30.00,North,0,0.0,0.0,56,0.00,,,-99.99,VWS V12.07,2013-03-13 11:36:00,
2013-03-13 06:41:00,20.7,7.5,30.00,North,0,0.0,0.0,56,0.00,,,-99.99,VWS V12.07,2013-03-13 11:41:00,
2013-03-13 06:46:00,20.7,7.5,30.00,North,0,0.0,0.0,56,0.00,,,-99.99,VWS V12.07,2013-03-13 11:46:00,
2013-03-13 06:51:00,20.7,7.5,30.00,North,0,0.0,0.0,56,0.00,,,-99.99,VWS V12.07,2013-03-13 11:51:00,
2013-03-13 06:56:00,20.7,7.5,30.00,North,0,0.0,0.0,56,0.00,,,-99.99,VWS V12.07,2013-03-13 11:56:00,
2013-03-13 07:06:00,20.5,7.3,30.00,North,0,0.0,0.0,56,0.00,,,-99.99,VWS V12.07,2013-03-13 12:06:00,
2013-03-13 07:11:00,20.5,7.3,30.00,North,0,0.0,0.0,56,0.00,,,-99.99,VWS V12.07,2013-03-13 12:11:00,
2013-03-13 07:16:00,20.5,7.3,30.00,North,0,0.0,0.0,56,0.00,,,-99.99,VWS V12.07,2013-03-13 12:16:00,
2013-03-13 07:21:00,20.5,7.3,30.00,North,0,0.0,0.0,56,0.00,,,-99.99,VWS V12.07,2013-03-13 12:21:00,
2013-03-13 07:26:00,20.5,7.3,30.00,North,0,0.0,0.0,56,0.00,,,-99.99,VWS V12.07,2013-03-13 12:26:00,
2013-03-13 07:31:00,20.5,7.3,30.00,North,0,0.0,0.0,56,0.00,,,-99.99,VWS V12.07,2013-03-13 12:31:00,
2013-03-13 07:36:00,20.5,7.3,30.00,North,0,0.0,0.0,56,0.00,,,-99.99,VWS V12.07,2013-03-13 12:36:00,
2013-03-13 07:41:00,20.7,7.5,30.00,North,0,0.0,0.0,56,0.00,,,-99.99,VWS V12.07,2013-03-13 12:41:00,
2013-03-13 07:46:00,20.8,7.6,30.00,North,0,0.0,0.0,56,0.00,,,-99.99,VWS V12.07,2013-03-13 12:46:00,
2013-03-13 07:56:00,21.2,7.6,30.03,North,0,0.0,0.0,55,0.00,,,-99.99,VWS V12.07,2013-03-13 12:56:00,
2013-03-13 08:06:00,21.6,7.5,30.03,North,0,0.0,0.0,54,0.00,,,-99.99,VWS V12.07,2013-03-13 13:06:00,
2013-03-13 08:11:00,21.7,7.7,30.03,North,0,0.0,0.0,54,0.00,,,-99.99,VWS V12.07,2013-03-13 13:11:00,
2013-03-13 08:16:00,21.7,7.3,30.03,North,0,0.0,0.0,53,0.00,,,-99.99,VWS V12.07,2013-03-13 13:16:00,
2013-03-13 08:21:00,21.7,7.3,30.03,North,0,0.0,0.0,53,0.00,,,-99.99,VWS V12.07,2013-03-13 13:21:00,
2013-03-13 08:26:00,21.7,7.3,30.03,North,0,0.0,0.0,53,0.00,,,-99.99,VWS V12.07,2013-03-13 13:26:00,
2013-03-13 08:31:00,21.7,6.8,30.03,North,0,0.0,0.0,52,0.00,,,-99.99,VWS V12.07,2013-03-13 13:31:00,
2013-03-13 08:36:00,21.9,7.0,30.03,North,0,0.0,0.0,52,0.00,,,-99.99,VWS V12.07,2013-03-13 13:36:00,
2013-03-13 08:41:00,21.9,7.0,30.03,North,0,0.0,0.0,52,0.00,,,-99.99,VWS V12.07,2013-03-13 13:41:00,
2013-03-13 08:46:00,22.1,7.2,30.03,North,0,0.0,0.0,52,0.00,,,-99.99,VWS V12.07,2013-03-13 13:46:00,
2013-03-13 08:51:00,22.5,7.5,30.06,North,0,0.0,0.0,52,0.00,,,-99.99,VWS V12.07,2013-03-13 13:51:00,
2013-03-13 08:56:00,23.0,8.0,30.06,North,0,0.0,0.0,52,0.00,,,-99.99,VWS V12.07,2013-03-13 13:56:00,
2013-03-13 09:01:00,23.4,7.9,30.06,North,0,0.0,0.0,51,0.00,,,-99.99,VWS V12.07,2013-03-13 14:01:00,
2013-03-13 09:06:00,23.7,7.8,30.06,North,0,0.0,0.0,50,0.00,,,-99.99,VWS V12.07,2013-03-13 14:06:00,
2013-03-13 09:16:00,23.5,6.3,30.06,North,0,0.0,0.0,47,0.00,,,-99.99,VWS V12.07,2013-03-13 14:16:00,
2013-03-13 09:21:00,23.5,6.3,30.06,North,0,0.0,0.0,47,0.00,,,-99.99,VWS V12.07,2013-03-13 14:21:00,
2013-03-13 09:26:00,23.4,5.7,30.06,North,0,0.0,0.0,46,0.00,,,-99.99,VWS V12.07,2013-03-13 14:26:00,
2013-03-13 09:31:00,23.5,5.8,30.06,North,0,0.0,0.0,46,0.00,,,-99.99,VWS V12.07,2013-03-13 14:31:00,
2013-03-13 09:36:00,23.5,5.8,30.06,North,0,0.0,0.0,46,0.00,,,-99.99,VWS V12.07,2013-03-13 14:36:00,
2013-03-13 09:41:00,23.9,6.1,30.06,North,0,0.0,0.0,46,0.00,,,-99.99,VWS V12.07,2013-03-13 14:41:00,
2013-03-13 09:46:00,24.1,5.8,30.06,North,0,0.0,0.0,45,0.00,,,-99.99,VWS V12.07,2013-03-13 14:46:00,
2013-03-13 09:51:00,24.3,6.0,30.06,North,0,0.0,0.0,45,0.00,,,-99.99,VWS V12.07,2013-03-13 14:51:00,
2013-03-13 09:56:00,24.6,6.3,30.06,North,0,0.0,0.0,45,0.00,,,-99.99,VWS V12.07,2013-03-13 14:56:00,
2013-03-13 10:01:00,24.8,6.5,30.06,North,0,0.0,0.0,45,0.00,,,-99.99,VWS V12.07,2013-03-13 15:01:00,
2013-03-13 10:06:00,24.6,5.8,30.09,North,0,0.0,0.0,44,0.00,,,-99.99,VWS V12.07,2013-03-13 15:06:00,
2013-03-13 10:16:00,24.6,5.8,30.09,North,0,0.0,0.0,44,0.00,,,-99.99,VWS V12.07,2013-03-13 15:16:00,
2013-03-13 10:21:00,24.6,5.8,30.09,North,0,0.0,0.0,44,0.00,,,-99.99,VWS V12.07,2013-03-13 15:21:00,
2013-03-13 10:26:00,24.6,5.3,30.09,North,0,0.0,0.0,43,0.00,,,-99.99,VWS V12.07,2013-03-13 15:26:00,
2013-03-13 10:31:00,24.6,5.3,30.09,North,0,0.0,0.0,43,0.00,,,-99.99,VWS V12.07,2013-03-13 15:31:00,
2013-03-13 10:41:00,24.6,5.3,30.09,North,0,0.0,0.0,43,0.00,,,-99.99,VWS V12.07,2013-03-13 15:41:00,
2013-03-13 10:46:00,24.8,5.5,30.09,North,0,0.0,0.0,43,0.00,,,-99.99,VWS V12.07,2013-03-13 15:46:00,
2013-03-13 10:51:00,24.8,5.5,30.09,North,0,0.0,0.0,43,0.00,,,-99.99,VWS V12.07,2013-03-13 15:51:00,
2013-03-13 10:56:00,25.2,5.8,30.09,North,0,0.0,0.0,43,0.00,,,-99.99,VWS V12.07,2013-03-13 15:56:00,
2013-03-13 11:01:00,25.3,5.5,30.09,North,0,0.0,0.0,42,0.00,,,-99.99,VWS V12.07,2013-03-13 16:01:00,
2013-03-13 11:06:00,25.3,5.5,30.09,North,0,0.0,0.0,42,0.00,,,-99.99,VWS V12.07,2013-03-13 16:06:00,
2013-03-13 11:16:00,25.9,6.0,30.09,North,0,0.0,0.0,42,0.00,,,-99.99,VWS V12.07,2013-03-13 16:16:00,
2013-03-13 11:21:00,25.9,6.0,30.12,North,0,0.0,0.0,42,0.00,,,-99.99,VWS V12.07,2013-03-13 16:21:00,
2013-03-13 11:31:00,26.4,5.9,30.12,North,0,0.0,0.0,41,0.00,,,-99.99,VWS V12.07,2013-03-13 16:31:00,
2013-03-13 11:41:00,26.4,5.9,30.12,North,0,0.0,0.0,41,0.00,,,-99.99,VWS V12.07,2013-03-13 16:41:00,
2013-03-13 11:51:00,26.6,6.1,30.12,North,0,0.0,0.0,41,0.00,,,-99.99,VWS V12.07,2013-03-13 16:51:00,
2013-03-13 11:56:00,27.0,5.9,30.12,North,0,0.0,0.0,40,0.00,,,-99.99,VWS V12.07,2013-03-13 16:56:00,
2013-03-13 12:01:00,27.0,5.3,30.12,North,0,0.0,0.0,39,0.00,,,-99.99,VWS V12.07,2013-03-13 17:01:00,
2013-03-13 12:11:00,27.1,4.9,30.12,North,0,0.0,0.0,38,0.00,,,-99.99,VWS V12.07,2013-03-13 17:11:00,
2013-03-13 12:16:00,27.3,5.1,30.12,North,0,0.0,0.0,38,0.00,,,-99.99,VWS V12.07,2013-03-13 17:16:00,
2013-03-13 12:21:00,27.7,6.0,30.12,North,0,0.0,0.0,39,0.00,,,-99.99,VWS V12.07,2013-03-13 17:21:00,
2013-03-13 12:26:00,28.2,5.9,30.12,North,0,0.0,0.0,38,0.00,,,-99.99,VWS V12.07,2013-03-13 17:26:00,
2013-03-13 12:31:00,28.4,6.1,30.12,North,0,0.0,0.0,38,0.00,,,-99.99,VWS V12.07,2013-03-13 17:31:00,
2013-03-13 12:36:00,28.4,5.5,30.12,North,0,0.0,0.0,37,0.00,,,-99.99,VWS V12.07,2013-03-13 17:36:00,
2013-03-13 12:41:00,28.6,5.0,30.12,North,0,0.0,0.0,36,0.00,,,-99.99,VWS V12.07,2013-03-13 17:41:00,
2013-03-13 12:46:00,28.6,4.4,30.12,North,0,0.0,0.0,35,0.00,,,-99.99,VWS V12.07,2013-03-13 17:46:00,
2013-03-13 12:51:00,28.9,5.3,30.12,North,0,0.0,0.0,36,0.00,,,-99.99,VWS V12.07,2013-03-13 17:51:00,
2013-03-13 12:56:00,28.9,4.7,30.12,North,0,0.0,0.0,35,0.00,,,-99.99,VWS V12.07,2013-03-13 17:56:00,
2013-03-13 13:01:00,29.1,4.9,30.12,North,0,0.0,0.0,35,0.00,,,-99.99,VWS V12.07,2013-03-13 18:01:00,
2013-03-13 13:06:00,29.3,5.1,30.12,North,0,0.0,0.0,35,0.00,,,-99.99,VWS V12.07,2013-03-13 18:06:00,
2013-03-13 13:11:00,29.1,4.9,30.12,North,0,0.0,0.0,35,0.00,,,-99.99,VWS V12.07,2013-03-13 18:11:00,
2013-03-13 13:16:00,29.5,4.6,30.12,North,0,0.0,0.0,34,0.00,,,-99.99,VWS V12.07,2013-03-13 18:16:00,
2013-03-13 13:31:00,29.7,4.7,30.12,North,0,0.0,0.0,34,0.00,,,-99.99,VWS V12.07,2013-03-13 18:31:00,
2013-03-13 13:36:00,30.2,5.2,30.12,North,0,0.0,0.0,34,0.00,,,-99.99,VWS V12.07,2013-03-13 18:36:00,
2013-03-13 13:41:00,30.2,5.2,30.12,North,0,0.0,0.0,34,0.00,,,-99.99,VWS V12.07,2013-03-13 18:41:00,
2013-03-13 13:46:00,30.2,5.2,30.12,North,0,0.0,0.0,34,0.00,,,-99.99,VWS V12.07,2013-03-13 18:46:00,
2013-03-13 13:51:00,30.4,5.4,30.12,North,0,0.0,0.0,34,0.00,,,-99.99,VWS V12.07,2013-03-13 18:51:00,
2013-03-13 13:56:00,30.6,5.5,30.12,North,0,0.0,0.0,34,0.00,,,-99.99,VWS V12.07,2013-03-13 18:56:00,
2013-03-13 14:01:00,30.7,5.1,30.12,North,0,0.0,0.0,33,0.00,,,-99.99,VWS V12.07,2013-03-13 19:01:00,
2013-03-13 14:06:00,30.9,5.2,30.15,North,0,0.0,0.0,33,0.00,,,-99.99,VWS V12.07,2013-03-13 19:06:00,
2013-03-13 14:11:00,30.9,5.2,30.15,North,0,0.0,0.0,33,0.00,,,-99.99,VWS V12.07,2013-03-13 19:11:00,
2013-03-13 14:16:00,30.7,4.4,30.15,North,0,0.0,0.0,32,0.00,,,-99.99,VWS V12.07,2013-03-13 19:16:00,
2013-03-13 14:21:00,30.7,5.1,30.15,North,0,0.0,0.0,33,0.00,,,-99.99,VWS V12.07,2013-03-13 19:21:00,
2013-03-13 14:26:00,30.7,4.4,30.15,North,0,0.0,0.0,32,0.00,,,-99.99,VWS V12.07,2013-03-13 19:26:00,
2013-03-13 14:31:00,30.6,4.2,30.15,North,0,0.0,0.0,32,0.00,,,-99.99,VWS V12.07,2013-03-13 19:31:00,
2013-03-13 14:36:00,31.1,4.7,30.15,North,0,0.0,0.0,32,0.00,,,-99.99,VWS V12.07,2013-03-13 19:36:00,
2013-03-13 14:41:00,31.3,4.9,30.15,North,0,0.0,0.0,32,0.00,,,-99.99,VWS V12.07,2013-03-13 19:41:00,
2013-03-13 14:51:00,31.5,5.0,30.15,North,0,0.0,0.0,32,0.00,,,-99.99,VWS V12.07,2013-03-13 19:51:00,
2013-03-13 14:56:00,31.3,4.9,30.15,North,0,0.0,0.0,32,0.00,,,-99.99,VWS V12.07,2013-03-13 19:56:00,
2013-03-13 15:06:00,31.5,5.0,30.15,North,0,0.0,0.0,32,0.00,,,-99.99,VWS V12.07,2013-03-13 20:06:00,
2013-03-13 15:11:00,31.6,5.2,30.15,North,0,0.0,0.0,32,0.00,,,-99.99,VWS V12.07,2013-03-13 20:11:00,
2013-03-13 15:16:00,31.8,5.3,30.15,North,0,0.0,0.0,32,0.00,,,-99.99,VWS V12.07,2013-03-13 20:16:00,
2013-03-13 15:21:00,32.2,5.7,30.15,North,0,0.0,0.0,32,0.00,,,-99.99,VWS V12.07,2013-03-13 20:21:00,
2013-03-13 15:26:00,32.2,5.7,30.15,North,0,0.0,0.0,32,0.00,,,-99.99,VWS V12.07,2013-03-13 20:26:00,
2013-03-13 15:31:00,32.5,6.0,30.15,North,0,0.0,0.0,32,0.00,,,-99.99,VWS V12.07,2013-03-13 20:31:00,
2013-03-13 15:36:00,32.5,6.0,30.15,North,0,0.0,0.0,32,0.00,,,-99.99,VWS V12.07,2013-03-13 20:36:00,
2013-03-13 15:41:00,32.4,5.8,30.15,North,0,0.0,0.0,32,0.00,,,-99.99,VWS V12.07,2013-03-13 20:41:00,
2013-03-13 15:46:00,32.4,5.8,30.15,North,0,0.0,0.0,32,0.00,,,-99.99,VWS V12.07,2013-03-13 20:46:00,
2013-03-13 15:56:00,32.5,6.0,30.15,North,0,0.0,0.0,32,0.00,,,-99.99,VWS V12.07,2013-03-13 20:56:00,
2013-03-13 16:01:00,32.5,5.3,30.15,North,0,0.0,0.0,31,0.00,,,-99.99,VWS V12.07,2013-03-13 21:01:00,
2013-03-13 16:06:00,32.5,6.0,30.15,North,0,0.0,0.0,32,0.00,,,-99.99,VWS V12.07,2013-03-13 21:06:00,
2013-03-13 16:11:00,32.2,5.0,30.15,North,0,0.0,0.0,31,0.00,,,-99.99,VWS V12.07,2013-03-13 21:11:00,
2013-03-13 16:16:00,32.2,5.0,30.15,North,0,0.0,0.0,31,0.00,,,-99.99,VWS V12.07,2013-03-13 21:16:00,
2013-03-13 16:21:00,32.5,5.3,30.15,North,0,0.0,0.0,31,0.00,,,-99.99,VWS V12.07,2013-03-13 21:21:00,
2013-03-13 16:26:00,32.7,5.4,30.15,North,0,0.0,0.0,31,0.00,,,-99.99,VWS V12.07,2013-03-13 21:26:00,
2013-03-13 16:31:00,32.5,5.3,30.15,North,0,0.0,0.0,31,0.00,,,-99.99,VWS V12.07,2013-03-13 21:31:00,
2013-03-13 16:36:00,32.7,5.4,30.15,North,0,0.0,0.0,31,0.00,,,-99.99,VWS V12.07,2013-03-13 21:36:00,
2013-03-13 16:41:00,32.7,5.4,30.15,North,0,0.0,0.0,31,0.00,,,-99.99,VWS V12.07,2013-03-13 21:41:00,
2013-03-13 16:46:00,32.7,5.4,30.15,North,0,0.0,0.0,31,0.00,,,-99.99,VWS V12.07,2013-03-13 21:46:00,
2013-03-13 16:56:00,32.5,5.3,30.15,North,0,0.0,0.0,31,0.00,,,-99.99,VWS V12.07,2013-03-13 21:56:00,
2013-03-13 17:06:00,32.4,5.1,30.15,North,0,0.0,0.0,31,0.00,,,-99.99,VWS V12.07,2013-03-13 22:06:00,
2013-03-13 17:16:00,32.4,5.1,30.15,North,0,0.0,0.0,31,0.00,,,-99.99,VWS V12.07,2013-03-13 22:16:00,
2013-03-13 17:21:00,32.4,5.1,30.18,North,0,0.0,0.0,31,0.00,,,-99.99,VWS V12.07,2013-03-13 22:21:00,
2013-03-13 17:26:00,32.2,5.0,30.18,North,0,0.0,0.0,31,0.00,,,-99.99,VWS V12.07,2013-03-13 22:26:00,
2013-03-13 17:31:00,32.4,5.1,30.18,North,0,0.0,0.0,31,0.00,,,-99.99,VWS V12.07,2013-03-13 22:31:00,
2013-03-13 17:36:00,32.4,5.1,30.18,North,0,0.0,0.0,31,0.00,,,-99.99,VWS V12.07,2013-03-13 22:36:00,
2013-03-13 17:41:00,32.4,5.1,30.18,North,0,0.0,0.0,31,0.00,,,-99.99,VWS V12.07,2013-03-13 22:41:00,
2013-03-13 17:46:00,32.2,5.0,30.18,North,0,0.0,0.0,31,0.00,,,-99.99,VWS V12.07,2013-03-13 22:46:00,
2013-03-13 17:51:00,32.2,5.0,30.18,North,0,0.0,0.0,31,0.00,,,-99.99,VWS V12.07,2013-03-13 22:51:00,
2013-03-13 17:56:00,32.2,5.0,30.18,North,0,0.0,0.0,31,0.00,,,-99.99,VWS V12.07,2013-03-13 22:56:00,
2013-03-13 18:06:00,32.0,4.8,30.18,North,0,0.0,0.0,31,0.00,,,-99.99,VWS V12.07,2013-03-13 23:06:00,
2013-03-13 18:11:00,31.8,4.6,30.18,North,0,0.0,0.0,31,0.00,,,-99.99,VWS V12.07,2013-03-13 23:11:00,
2013-03-13 18:16:00,31.6,4.5,30.18,North,0,0.0,0.0,31,0.00,,,-99.99,VWS V12.07,2013-03-13 23:16:00,
2013-03-13 18:21:00,31.5,4.3,30.18,North,0,0.0,0.0,31,0.00,,,-99.99,VWS V12.07,2013-03-13 23:21:00,
2013-03-13 18:36:00,31.1,4.7,30.18,North,0,0.0,0.0,32,0.00,,,-99.99,VWS V12.07,2013-03-13 23:36:00,
2013-03-13 18:41:00,30.9,4.5,30.18,North,0,0.0,0.0,32,0.00,,,-99.99,VWS V12.07,2013-03-13 23:41:00,
2013-03-13 18:46:00,30.9,4.5,30.18,North,0,0.0,0.0,32,0.00,,,-99.99,VWS V12.07,2013-03-13 23:46:00,
2013-03-13 19:01:00,30.6,4.2,30.18,North,0,0.0,0.0,32,0.00,,,-99.99,VWS V12.07,2013-03-14 00:01:00,
2013-03-13 19:11:00,30.7,4.4,30.18,North,0,0.0,0.0,32,0.00,,,-99.99,VWS V12.07,2013-03-14 00:11:00,
2013-03-13 19:21:00,30.7,4.4,30.18,North,0,0.0,0.0,32,0.00,,,-99.99,VWS V12.07,2013-03-14 00:21:00,
2013-03-13 19:26:00,30.6,4.2,30.18,North,0,0.0,0.0,32,0.00,,,-99.99,VWS V12.07,2013-03-14 00:26:00,
2013-03-13 19:31:00,30.2,3.9,30.18,North,0,0.0,0.0,32,0.00,,,-99.99,VWS V12.07,2013-03-14 00:31:00,
2013-03-13 19:36:00,30.0,3.8,30.18,North,0,0.0,0.0,32,0.00,,,-99.99,VWS V12.07,2013-03-14 00:36:00,
2013-03-13 19:46:00,30.0,4.4,30.18,North,0,0.0,0.0,33,0.00,,,-99.99,VWS V12.07,2013-03-14 00:46:00,
2013-03-13 19:51:00,29.8,4.2,30.18,North,0,0.0,0.0,33,0.00,,,-99.99,VWS V12.07,2013-03-14 00:51:00,
2013-03-13 20:01:00,29.5,3.9,30.18,North,0,0.0,0.0,33,0.00,,,-99.99,VWS V12.07,2013-03-14 01:01:00,
2013-03-13 20:11:00,29.5,3.9,30.18,North,0,0.0,0.0,33,0.00,,,-99.99,VWS V12.07,2013-03-14 01:11:00,
2013-03-13 20:16:00,29.3,3.8,30.18,North,0,0.0,0.0,33,0.00,,,-99.99,VWS V12.07,2013-03-14 01:16:00,
2013-03-13 20:21:00,29.3,3.8,30.18,North,0,0.0,0.0,33,0.00,,,-99.99,VWS V12.07,2013-03-14 01:21:00,
2013-03-13 20:26:00,29.1,3.6,30.18,North,0,0.0,0.0,33,0.00,,,-99.99,VWS V12.07,2013-03-14 01:26:00,
2013-03-13 20:36:00,28.9,3.5,30.18,North,0,0.0,0.0,33,0.00,,,-99.99,VWS V12.07,2013-03-14 01:36:00,
2013-03-13 20:46:00,28.8,3.3,30.18,North,0,0.0,0.0,33,0.00,,,-99.99,VWS V12.07,2013-03-14 01:46:00,
2013-03-13 20:56:00,28.6,3.1,30.18,North,0,0.0,0.0,33,0.00,,,-99.99,VWS V12.07,2013-03-14 01:56:00,
2013-03-13 21:01:00,28.6,3.1,30.18,North,0,0.0,0.0,33,0.00,,,-99.99,VWS V12.07,2013-03-14 02:01:00,
2013-03-13 21:11:00,28.4,3.6,30.18,North,0,0.0,0.0,34,0.00,,,-99.99,VWS V12.07,2013-03-14 02:11:00,
2013-03-13 21:21:00,28.4,3.0,30.18,North,0,0.0,0.0,33,0.00,,,-99.99,VWS V12.07,2013-03-14 02:21:00,
2013-03-13 21:26:00,28.4,3.0,30.18,North,0,0.0,0.0,33,0.00,,,-99.99,VWS V12.07,2013-03-14 02:26:00,
2013-03-13 21:41:00,28.0,2.7,30.18,North,0,0.0,0.0,33,0.00,,,-99.99,VWS V12.07,2013-03-14 02:41:00,
2013-03-13 21:46:00,27.9,3.2,30.18,North,0,0.0,0.0,34,0.00,,,-99.99,VWS V12.07,2013-03-14 02:46:00,
2013-03-13 21:56:00,28.0,3.3,30.18,North,0,0.0,0.0,34,0.00,,,-99.99,VWS V12.07,2013-03-14 02:56:00,
2013-03-13 22:06:00,28.0,2.7,30.18,North,0,0.0,0.0,33,0.00,,,-99.99,VWS V12.07,2013-03-14 03:06:00,
2013-03-13 22:11:00,28.2,2.8,30.18,North,0,0.0,0.0,33,0.00,,,-99.99,VWS V12.07,2013-03-14 03:11:00,
2013-03-13 22:16:00,28.2,2.8,30.18,North,0,0.0,0.0,33,0.00,,,-99.99,VWS V12.07,2013-03-14 03:16:00,
2013-03-13 22:26:00,28.0,2.7,30.18,North,0,0.0,0.0,33,0.00,,,-99.99,VWS V12.07,2013-03-14 03:26:00,
2013-03-13 22:31:00,28.0,2.7,30.18,North,0,0.0,0.0,33,0.00,,,-99.99,VWS V12.07,2013-03-14 03:31:00,
2013-03-13 22:36:00,28.0,2.7,30.18,North,0,0.0,0.0,33,0.00,,,-99.99,VWS V12.07,2013-03-14 03:36:00,
2013-03-13 22:41:00,27.9,2.5,30.18,North,0,0.0,0.0,33,0.00,,,-99.99,VWS V12.07,2013-03-14 03:41:00,
2013-03-13 22:46:00,27.9,2.5,30.18,North,0,0.0,0.0,33,0.00,,,-99.99,VWS V12.07,2013-03-14 03:46:00,
2013-03-13 22:51:00,27.5,2.2,30.18,North,0,0.0,0.0,33,0.00,,,-99.99,VWS V12.07,2013-03-14 03:51:00,
2013-03-13 23:01:00,27.3,2.0,30.18,North,0,0.0,0.0,33,0.00,,,-99.99,VWS V12.07,2013-03-14 04:01:00,
2013-03-13 23:06:00,27.3,2.0,30.18,North,0,0.0,0.0,33,0.00,,,-99.99,VWS V12.07,2013-03-14 04:06:00,
2013-03-13 23:11:00,27.1,1.9,30.18,North,0,0.0,0.0,33,0.00,,,-99.99,VWS V12.07,2013-03-14 04:11:00,
2013-03-13 23:21:00,27.1,1.9,30.18,North,0,0.0,0.0,33,0.00,,,-99.99,VWS V12.07,2013-03-14 04:21:00,
2013-03-13 23:26:00,27.1,1.9,30.18,North,0,0.0,0.0,33,0.00,,,-99.99,VWS V12.07,2013-03-14 04:26:00,
2013-03-13 23:31:00,27.1,1.9,30.18,North,0,0.0,0.0,33,0.00,,,-99.99,VWS V12.07,2013-03-14 04:31:00,
2013-03-13 23:41:00,27.0,2.3,30.18,North,0,0.0,0.0,34,0.00,,,-99.99,VWS V12.07,2013-03-14 04:41:00,
2013-03-13 23:46:00,26.6,2.0,30.18,North,0,0.0,0.0,34,0.00,,,-99.99,VWS V12.07,2013-03-14 04:46:00,
2013-03-13 23:56:00,26.6,2.0,30.18,North,0,0.0,0.0,34,0.00,,,-99.99,VWS V12.07,2013-03-14 04:56:00,